ěÝzenÝ letovÚho provozu ╚eskÚ republiky
Letiste: LKLN Aktualizace: 25.05.2024 08:36:39  UTC
 METAR LKLN 25.05. 08:30 RRC
METAR LKLN 250830Z AUTO VRB03KT 9999 FEW012 17/12 Q1018=